createdAt,value
2019-02-05T00:01:56.579Z,14.23
2019-02-05T00:04:27.616Z,13.63
2019-02-05T00:06:57.644Z,16.60
2019-02-05T00:09:26.281Z,14.50
2019-02-05T00:11:57.146Z,15.37
2019-02-05T00:14:28.826Z,20.53
2019-02-05T00:17:00.502Z,15.93
2019-02-05T00:19:28.889Z,15.00
2019-02-05T00:21:57.281Z,15.00
2019-02-05T00:24:37.393Z,16.30
2019-02-05T00:27:08.187Z,15.63
2019-02-05T00:29:36.574Z,16.53
2019-02-05T00:32:04.970Z,16.97
2019-02-05T00:34:37.856Z,16.77
2019-02-05T00:37:07.904Z,17.93
2019-02-05T00:39:37.181Z,21.97
2019-02-05T00:42:08.582Z,17.47
2019-02-05T00:44:39.737Z,17.87
2019-02-05T00:47:14.148Z,21.43
2019-02-05T00:49:44.248Z,21.60
2019-02-05T00:52:16.161Z,21.63
2019-02-05T00:54:44.554Z,19.70
2019-02-05T00:57:18.956Z,21.60
2019-02-05T00:59:47.373Z,18.73
2019-02-05T01:02:15.845Z,17.23
2019-02-05T01:04:44.258Z,20.47
2019-02-05T01:07:17.077Z,21.47
2019-02-05T01:09:48.173Z,20.27
2019-02-05T01:12:16.572Z,18.40
2019-02-05T01:14:45.139Z,19.10
2019-02-05T01:17:13.536Z,22.23
2019-02-05T01:19:41.933Z,20.27
2019-02-05T01:22:13.057Z,21.77
2019-02-05T01:24:41.465Z,20.20
2019-02-05T01:27:09.849Z,20.93
2019-02-05T01:29:42.974Z,21.40
2019-02-05T01:32:11.365Z,19.33
2019-02-05T01:34:40.646Z,20.97
2019-02-05T01:37:09.031Z,18.83
2019-02-05T01:39:51.817Z,21.43
2019-02-05T01:42:26.428Z,19.03
2019-02-05T01:44:55.692Z,20.87
2019-02-05T01:47:30.104Z,19.83
2019-02-05T01:50:01.679Z,20.47
2019-02-05T01:52:38.097Z,23.17
2019-02-05T01:55:12.568Z,22.33
2019-02-05T01:57:41.152Z,22.37
2019-02-05T02:00:24.363Z,23.30
2019-02-05T02:02:52.836Z,20.57
2019-02-05T02:05:24.261Z,21.07
2019-02-05T02:07:55.565Z,20.97
2019-02-05T02:10:29.389Z,20.60
2019-02-05T02:12:59.215Z,23.30
2019-02-05T02:15:30.990Z,28.20
2019-02-05T02:17:59.397Z,24.40
2019-02-05T02:20:32.033Z,20.93
2019-02-05T02:23:00.377Z,20.77
2019-02-05T02:25:30.416Z,19.57
2019-02-05T02:27:58.809Z,22.80
2019-02-05T02:30:38.891Z,29.37
2019-02-05T02:33:07.998Z,22.77
2019-02-05T02:35:44.337Z,22.97
2019-02-05T02:38:15.673Z,22.00
2019-02-05T02:40:45.613Z,25.03
2019-02-05T02:43:16.702Z,28.20
2019-02-05T02:45:45.100Z,26.43
2019-02-05T02:48:20.419Z,23.57
2019-02-05T02:50:51.538Z,23.00
2019-02-05T02:53:29.271Z,24.93
2019-02-05T02:56:02.276Z,26.33
2019-02-05T02:58:37.628Z,26.27
2019-02-05T03:01:06.665Z,28.10
2019-02-05T03:03:38.088Z,25.50
2019-02-05T03:06:08.517Z,27.10
2019-02-05T03:08:37.165Z,24.17
2019-02-05T03:11:12.370Z,29.73
2019-02-05T03:13:40.753Z,30.33
2019-02-05T03:16:10.702Z,25.27
2019-02-05T03:18:39.099Z,27.37
2019-02-05T03:21:08.290Z,28.20
2019-02-05T03:23:39.708Z,26.93
2019-02-05T03:26:08.103Z,26.23
2019-02-05T03:28:38.090Z,30.37
2019-02-05T03:31:06.490Z,26.97
2019-02-05T03:33:35.182Z,27.10
2019-02-05T03:36:06.153Z,23.57
2019-02-05T03:38:34.541Z,29.20
2019-02-05T03:41:13.801Z,30.20
2019-02-05T03:43:42.948Z,29.37
2019-02-05T03:46:22.002Z,29.47
2019-02-05T03:48:51.576Z,29.57
2019-02-05T03:51:23.078Z,28.60
2019-02-05T03:54:17.145Z,24.40
2019-02-05T03:57:09.804Z,24.77
2019-02-05T03:59:46.964Z,24.93
2019-02-05T04:02:37.575Z,22.53
2019-02-05T04:05:43.784Z,30.27
2019-02-05T04:08:15.413Z,26.70
2019-02-05T04:10:59.096Z,26.63
2019-02-05T04:13:36.075Z,26.03
2019-02-05T04:16:14.012Z,30.47
2019-02-05T04:18:51.248Z,25.80
2019-02-05T04:21:35.258Z,26.30
2019-02-05T04:24:43.870Z,24.67
2019-02-05T04:27:20.921Z,22.60
2019-02-05T04:30:15.678Z,23.10
2019-02-05T04:32:55.993Z,25.20
2019-02-05T04:35:51.806Z,25.30
2019-02-05T04:38:41.218Z,25.50
2019-02-05T04:41:20.277Z,29.80
2019-02-05T04:44:08.137Z,29.93
2019-02-05T04:46:47.083Z,36.57
2019-02-05T04:49:44.546Z,37.30
2019-02-05T04:52:38.092Z,29.13
2019-02-05T04:55:29.805Z,27.70
2019-02-05T04:58:04.261Z,25.77
2019-02-05T05:00:48.402Z,30.53
2019-02-05T05:03:33.771Z,33.17
2019-02-05T05:06:19.040Z,35.30
2019-02-05T05:08:59.496Z,39.77
2019-02-05T05:11:27.896Z,43.17
2019-02-05T05:13:56.546Z,42.73
2019-02-05T05:16:25.032Z,36.90
2019-02-05T05:18:53.433Z,38.47
2019-02-05T05:21:24.497Z,36.70
2019-02-05T05:23:56.912Z,32.83
2019-02-05T05:26:26.907Z,29.80
2019-02-05T05:29:07.060Z,36.87
2019-02-05T05:31:35.534Z,29.97
2019-02-05T05:34:04.580Z,29.27
2019-02-05T05:36:32.995Z,27.07
2019-02-05T05:39:03.702Z,31.13
2019-02-05T05:41:32.128Z,26.47
2019-02-05T05:44:00.877Z,25.20
2019-02-05T05:46:29.267Z,27.60
2019-02-05T05:49:00.257Z,23.73
2019-02-05T05:51:29.350Z,26.40
2019-02-05T05:53:58.504Z,25.30
2019-02-05T05:56:26.935Z,25.97
2019-02-05T05:58:59.669Z,24.10
2019-02-05T06:01:31.033Z,26.47
2019-02-05T06:04:05.244Z,26.50
2019-02-05T06:06:39.561Z,27.50
2019-02-05T06:09:10.537Z,21.53
2019-02-05T06:11:46.381Z,24.83
2019-02-05T06:14:19.387Z,23.20
2019-02-05T06:16:51.245Z,21.97
2019-02-05T06:19:19.638Z,23.27
2019-02-05T06:21:48.977Z,22.27
2019-02-05T06:24:20.330Z,23.17
2019-02-05T06:26:48.756Z,22.03
2019-02-05T06:29:18.782Z,31.47
2019-02-05T06:31:47.433Z,24.50
2019-02-05T06:34:18.825Z,24.60
2019-02-05T06:36:47.221Z,23.13
2019-02-05T06:39:15.634Z,23.10
2019-02-05T06:41:44.040Z,22.53
2019-02-05T06:44:12.502Z,27.67
2019-02-05T06:46:42.531Z,22.57
2019-02-05T06:49:11.172Z,28.30
2019-02-05T06:51:42.258Z,24.70
2019-02-05T06:54:14.961Z,24.33
2019-02-05T06:56:43.332Z,24.37
2019-02-05T06:59:11.877Z,20.83
2019-02-05T07:01:40.276Z,23.20
2019-02-05T07:04:11.937Z,22.97
2019-02-05T07:06:43.674Z,21.97
2019-02-05T07:09:12.985Z,22.07
2019-02-05T07:11:41.381Z,27.67
2019-02-05T07:14:15.636Z,23.80
2019-02-05T07:16:44.026Z,21.00
2019-02-05T07:19:12.719Z,25.40
2019-02-05T07:21:44.756Z,25.33
2019-02-05T07:24:19.000Z,24.23
2019-02-05T07:26:47.626Z,22.93
2019-02-05T07:29:18.734Z,21.23
2019-02-05T07:31:47.366Z,21.70
2019-02-05T07:34:15.832Z,22.47
2019-02-05T07:36:52.564Z,22.93
2019-02-05T07:39:24.009Z,20.47
2019-02-05T07:41:54.287Z,22.70
2019-02-05T07:44:24.054Z,23.07
2019-02-05T07:46:55.380Z,22.30
2019-02-05T07:49:26.689Z,21.70
2019-02-05T07:51:55.956Z,22.80
2019-02-05T07:54:24.341Z,22.63
2019-02-05T07:56:54.410Z,23.10
2019-02-05T07:59:22.845Z,23.97
2019-02-05T08:01:53.129Z,24.13
2019-02-05T08:04:21.755Z,24.33
2019-02-05T08:06:50.140Z,18.37
2019-02-05T08:09:19.428Z,24.63
2019-02-05T08:11:55.797Z,23.97
2019-02-05T08:14:24.154Z,22.77
2019-02-05T08:16:52.778Z,18.77
2019-02-05T08:19:28.196Z,30.70
2019-02-05T08:21:53.941Z,24.57
2019-02-05T08:24:22.649Z,23.50
2019-02-05T08:26:53.549Z,20.23
2019-02-05T08:29:32.581Z,22.73
2019-02-05T08:32:00.966Z,25.47
2019-02-05T08:34:32.064Z,23.10
2019-02-05T08:37:06.254Z,21.10
2019-02-05T08:39:39.840Z,23.67
2019-02-05T08:42:11.121Z,20.70
2019-02-05T08:44:39.552Z,20.43
2019-02-05T08:47:11.078Z,29.57
2019-02-05T08:49:39.460Z,22.90
2019-02-05T08:52:08.882Z,23.10
2019-02-05T08:54:38.148Z,27.30
2019-02-05T08:57:09.134Z,26.07
2019-02-05T08:59:37.512Z,31.40
2019-02-05T09:02:07.631Z,27.13
2019-02-05T09:04:37.668Z,27.07
2019-02-05T09:07:07.713Z,29.47
2019-02-05T09:09:36.092Z,25.50
2019-02-05T09:12:05.689Z,24.83
2019-02-05T09:14:34.845Z,26.27
2019-02-05T09:17:03.229Z,28.10
2019-02-05T09:19:31.627Z,28.63
2019-02-05T09:22:00.125Z,26.73
2019-02-05T09:24:31.402Z,23.77
2019-02-05T09:26:59.788Z,31.50
2019-02-05T09:29:33.360Z,26.37
2019-02-05T09:32:01.031Z,27.87
2019-02-05T09:34:32.248Z,23.90
2019-02-05T09:37:04.652Z,26.30
2019-02-05T09:39:33.285Z,26.87
2019-02-05T09:42:04.869Z,26.53
2019-02-05T09:44:33.331Z,25.90
2019-02-05T09:47:01.981Z,24.00
2019-02-05T09:49:32.249Z,23.40
2019-02-05T09:52:00.681Z,23.60
2019-02-05T09:54:32.346Z,28.47
2019-02-05T09:57:03.955Z,25.57
2019-02-05T09:59:32.337Z,23.80
2019-02-05T10:02:00.797Z,21.67
2019-02-05T10:04:29.260Z,25.90
2019-02-05T10:06:59.302Z,27.00
2019-02-05T10:09:30.633Z,23.33
2019-02-05T10:12:00.633Z,33.30
2019-02-05T10:14:29.392Z,25.03
2019-02-05T10:16:58.646Z,22.93
2019-02-05T10:19:30.194Z,23.93
2019-02-05T10:21:59.403Z,22.50
2019-02-05T10:24:30.655Z,21.90
2019-02-05T10:27:01.757Z,23.17
2019-02-05T10:29:33.143Z,24.80
2019-02-05T10:32:02.529Z,23.27
2019-02-05T10:34:34.210Z,20.83
2019-02-05T10:37:02.016Z,23.47
2019-02-05T10:39:30.645Z,22.27
2019-02-05T10:41:59.271Z,22.10
2019-02-05T10:44:27.681Z,21.23
2019-02-05T10:46:56.257Z,21.50
2019-02-05T10:49:27.818Z,21.87
2019-02-05T10:51:58.897Z,21.90
2019-02-05T10:54:27.280Z,21.03
2019-02-05T10:56:58.813Z,25.17
2019-02-05T10:59:29.913Z,19.13
2019-02-05T11:01:59.084Z,22.17
2019-02-05T11:04:27.470Z,23.77
2019-02-05T11:06:55.864Z,22.37
2019-02-05T11:09:25.897Z,21.37
2019-02-05T11:11:54.289Z,22.53
2019-02-05T11:14:22.978Z,21.53
2019-02-05T11:16:54.198Z,22.97
2019-02-05T11:19:23.368Z,21.03
2019-02-05T11:21:51.759Z,21.27
2019-02-05T11:24:20.165Z,21.03
2019-02-05T11:26:51.392Z,23.50
2019-02-05T11:29:20.684Z,24.03
2019-02-05T11:31:52.041Z,28.20
2019-02-05T11:34:22.253Z,22.80
2019-02-05T11:36:50.694Z,25.13
2019-02-05T11:39:23.407Z,23.47
2019-02-05T11:41:53.514Z,23.90
2019-02-05T11:44:24.381Z,25.27
2019-02-05T11:46:53.025Z,21.77
2019-02-05T11:49:22.288Z,20.50
2019-02-05T11:51:50.686Z,21.20
2019-02-05T11:54:22.077Z,25.37
2019-02-05T11:56:52.185Z,24.30
2019-02-05T11:59:22.150Z,23.40
2019-02-05T12:01:52.177Z,20.93
2019-02-05T12:04:20.641Z,23.87
2019-02-05T12:06:49.921Z,21.00
2019-02-05T12:09:20.250Z,21.83
2019-02-05T12:11:51.606Z,22.20
2019-02-05T12:14:23.882Z,27.90
2019-02-05T12:16:52.768Z,24.57
2019-02-05T12:19:21.184Z,20.97
2019-02-05T12:21:49.949Z,24.37
2019-02-05T12:24:21.283Z,25.20
2019-02-05T12:26:51.317Z,25.93
2019-02-05T12:29:22.813Z,20.77
2019-02-05T12:31:52.857Z,20.20
2019-02-05T12:34:21.484Z,24.60
2019-02-05T12:36:56.925Z,24.63
2019-02-05T12:39:25.326Z,24.23
2019-02-05T12:41:55.341Z,19.00
2019-02-05T12:44:26.408Z,25.30
2019-02-05T12:47:03.661Z,21.43
2019-02-05T12:49:33.684Z,23.70
2019-02-05T12:52:08.573Z,23.50
2019-02-05T12:54:43.837Z,21.37
2019-02-05T12:57:12.596Z,21.83
2019-02-05T12:59:42.534Z,19.10
2019-02-05T13:02:13.813Z,20.60
2019-02-05T13:04:44.702Z,22.27
2019-02-05T13:07:14.712Z,19.37
2019-02-05T13:09:43.357Z,19.53
2019-02-05T13:12:13.393Z,22.17
2019-02-05T13:14:43.663Z,21.83
2019-02-05T13:17:17.235Z,22.47
2019-02-05T13:19:51.344Z,22.67
2019-02-05T13:22:23.428Z,20.90
2019-02-05T13:24:56.434Z,18.63
2019-02-05T13:27:33.373Z,23.50
2019-02-05T13:30:07.766Z,24.43
2019-02-05T13:32:38.956Z,20.23
2019-02-05T13:35:10.194Z,22.63
2019-02-05T13:37:41.157Z,17.60
2019-02-05T13:40:17.640Z,17.33
2019-02-05T13:42:47.955Z,18.47
2019-02-05T13:45:19.742Z,19.13
2019-02-05T13:47:50.039Z,20.17
2019-02-05T13:50:32.916Z,18.90
2019-02-05T13:52:58.597Z,17.03
2019-02-05T13:55:32.981Z,22.10
2019-02-05T13:58:01.545Z,21.17
2019-02-05T14:00:36.620Z,21.10
2019-02-05T14:03:08.034Z,21.00
2019-02-05T14:05:40.471Z,19.67
2019-02-05T14:08:09.072Z,18.23
2019-02-05T14:10:47.046Z,20.03
2019-02-05T14:13:18.878Z,18.37
2019-02-05T14:15:50.214Z,19.03
2019-02-05T14:18:18.770Z,17.40
2019-02-05T14:20:48.865Z,20.67
2019-02-05T14:23:24.354Z,19.53
2019-02-05T14:25:52.737Z,16.73
2019-02-05T14:28:21.153Z,18.57
2019-02-05T14:30:52.669Z,21.20
2019-02-05T14:33:28.103Z,21.37
2019-02-05T14:35:58.300Z,15.97
2019-02-05T14:38:28.637Z,21.53
2019-02-05T14:41:02.735Z,19.57
2019-02-05T14:43:31.121Z,18.40
2019-02-05T14:45:59.586Z,19.20
2019-02-05T14:48:28.566Z,19.97
2019-02-05T14:50:59.727Z,18.17
2019-02-05T14:53:32.554Z,21.67
2019-02-05T14:56:01.814Z,18.23
2019-02-05T14:58:30.289Z,20.97
2019-02-05T15:00:58.668Z,19.13
2019-02-05T15:03:27.293Z,20.57
2019-02-05T15:05:55.681Z,26.63
2019-02-05T15:08:27.132Z,23.53
2019-02-05T15:10:56.309Z,24.10
2019-02-05T15:13:24.946Z,29.83
2019-02-05T15:15:54.861Z,21.07
2019-02-05T15:18:24.033Z,19.27
2019-02-05T15:20:53.181Z,20.03
2019-02-05T15:23:24.607Z,20.33
2019-02-05T15:25:53.768Z,22.37
2019-02-05T15:28:24.961Z,22.37
2019-02-05T15:30:56.069Z,20.53
2019-02-05T15:33:34.461Z,25.13
2019-02-05T15:36:08.397Z,21.13
2019-02-05T15:38:51.813Z,22.97
2019-02-05T15:41:25.630Z,19.77
2019-02-05T15:43:54.030Z,19.73
2019-02-05T15:46:26.328Z,19.47
2019-02-05T15:48:58.809Z,19.93
2019-02-05T15:51:27.199Z,19.33
2019-02-05T15:53:58.269Z,20.43
2019-02-05T15:56:29.550Z,20.10
2019-02-05T15:59:00.687Z,19.07
2019-02-05T16:01:31.509Z,19.57
2019-02-05T16:04:01.542Z,21.07
2019-02-05T16:06:29.929Z,23.60
2019-02-05T16:09:01.395Z,21.50
2019-02-05T16:11:29.777Z,22.90
2019-02-05T16:13:58.161Z,22.17
2019-02-05T16:16:27.380Z,21.60
2019-02-05T16:18:55.763Z,20.67
2019-02-05T16:21:27.100Z,20.80
2019-02-05T16:24:07.385Z,19.50
2019-02-05T16:26:37.896Z,23.73
2019-02-05T16:29:09.734Z,22.93
2019-02-05T16:31:38.206Z,21.40
2019-02-05T16:34:10.406Z,27.33
2019-02-05T16:36:38.805Z,21.77
2019-02-05T16:39:10.248Z,22.93
2019-02-05T16:41:41.629Z,26.83
2019-02-05T16:44:15.782Z,22.70
2019-02-05T16:46:47.017Z,23.30
2019-02-05T16:49:22.310Z,23.70
2019-02-05T16:51:51.745Z,25.70
2019-02-05T16:54:26.373Z,21.13
2019-02-05T16:56:56.394Z,24.47
2019-02-05T16:59:26.494Z,26.37
2019-02-05T17:01:57.713Z,22.50
2019-02-05T17:04:31.972Z,23.63
2019-02-05T17:07:04.842Z,21.77
2019-02-05T17:09:36.098Z,29.23
2019-02-05T17:12:05.431Z,22.17
2019-02-05T17:14:35.205Z,25.83
2019-02-05T17:17:06.750Z,26.43
2019-02-05T17:19:40.947Z,20.87
2019-02-05T17:22:10.885Z,23.93
2019-02-05T17:24:41.976Z,21.83
2019-02-05T17:27:13.020Z,23.03
2019-02-05T17:29:41.409Z,23.67
2019-02-05T17:32:18.241Z,23.97
2019-02-05T17:34:52.460Z,24.63
2019-02-05T17:37:21.146Z,25.63
2019-02-05T17:39:52.600Z,21.17
2019-02-05T17:42:29.786Z,21.70
2019-02-05T17:45:08.262Z,21.13
2019-02-05T17:47:36.657Z,20.67
2019-02-05T17:50:08.116Z,21.10
2019-02-05T17:52:36.508Z,25.60
2019-02-05T17:55:08.146Z,23.53
2019-02-05T17:57:46.153Z,22.53
2019-02-05T18:00:38.813Z,21.40
2019-02-05T18:03:12.702Z,19.10
2019-02-05T18:05:41.891Z,21.43
2019-02-05T18:08:13.445Z,29.87
2019-02-05T18:10:46.170Z,21.20
2019-02-05T18:13:14.813Z,22.20
2019-02-05T18:15:46.302Z,22.93
2019-02-05T18:18:15.677Z,22.57
2019-02-05T18:20:50.310Z,25.77
2019-02-05T18:23:19.463Z,31.13
2019-02-05T18:25:50.280Z,24.67
2019-02-05T18:28:18.908Z,26.77
2019-02-05T18:30:48.936Z,26.60
2019-02-05T18:33:17.336Z,26.43
2019-02-05T18:35:45.749Z,29.90
2019-02-05T18:38:16.772Z,26.20
2019-02-05T18:40:48.347Z,26.57
2019-02-05T18:43:17.405Z,27.20
2019-02-05T18:45:54.402Z,24.20
2019-02-05T18:48:26.866Z,25.03
2019-02-05T18:50:55.069Z,28.27
2019-02-05T18:53:29.154Z,25.70
2019-02-05T18:56:00.508Z,25.57
2019-02-05T18:58:32.546Z,23.97
2019-02-05T19:01:15.736Z,28.93
2019-02-05T19:03:45.782Z,32.70
2019-02-05T19:06:17.222Z,29.60
2019-02-05T19:08:47.270Z,29.70
2019-02-05T19:11:15.677Z,31.30
2019-02-05T19:13:44.305Z,30.73
2019-02-05T19:16:15.653Z,26.50
2019-02-05T19:18:56.437Z,26.80
2019-02-05T19:21:27.625Z,27.50
2019-02-05T19:24:01.405Z,27.83
2019-02-05T19:26:29.860Z,29.83
2019-02-05T19:28:58.240Z,27.40
2019-02-05T19:31:28.271Z,25.87
2019-02-05T19:33:59.116Z,29.83
2019-02-05T19:36:28.368Z,30.20
2019-02-05T19:38:58.649Z,31.40
2019-02-05T19:41:30.137Z,24.60
2019-02-05T19:44:00.157Z,24.30
2019-02-05T19:46:39.358Z,23.17
2019-02-05T19:49:21.119Z,26.37
2019-02-05T19:51:41.718Z,25.30
2019-02-05T19:54:16.483Z,25.13
2019-02-05T19:56:47.814Z,26.27
2019-02-05T19:59:18.455Z,28.90
2019-02-05T20:01:49.037Z,23.03
2019-02-05T20:04:18.434Z,22.93
2019-02-05T20:06:49.841Z,27.43
2019-02-05T20:09:18.226Z,19.70
2019-02-05T20:11:46.622Z,22.73
2019-02-05T20:14:15.171Z,21.07
2019-02-05T20:16:43.601Z,25.50
2019-02-05T20:19:11.990Z,32.33
2019-02-05T20:21:42.786Z,28.67
2019-02-05T20:24:15.922Z,24.70
2019-02-05T20:26:47.657Z,22.23
2019-02-05T20:29:16.310Z,20.50
2019-02-05T20:31:44.705Z,21.17
2019-02-05T20:34:26.001Z,20.70
2019-02-05T20:37:00.341Z,20.00
2019-02-05T20:39:30.136Z,21.23
2019-02-05T20:41:59.190Z,25.47
2019-02-05T20:44:28.322Z,25.07
2019-02-05T20:46:57.658Z,22.17
2019-02-05T20:49:27.834Z,21.37
2019-02-05T20:51:57.190Z,19.37
2019-02-05T20:54:25.579Z,20.57
2019-02-05T20:56:53.972Z,23.50
2019-02-05T20:59:22.376Z,23.23
2019-02-05T21:01:50.754Z,21.47
2019-02-05T21:04:19.377Z,27.40
2019-02-05T21:06:48.921Z,24.97
2019-02-05T21:09:19.268Z,25.37
2019-02-05T21:11:47.897Z,30.47
2019-02-05T21:14:16.344Z,29.37
2019-02-05T21:16:46.455Z,29.10
2019-02-05T21:19:14.838Z,27.93
2019-02-05T21:21:43.221Z,28.50
2019-02-05T21:24:12.431Z,28.20
2019-02-05T21:26:42.174Z,30.93
2019-02-05T21:29:10.563Z,27.87
2019-02-05T21:31:41.718Z,30.93
2019-02-05T21:34:15.184Z,31.97
2019-02-05T21:36:41.446Z,29.73
2019-02-05T21:39:11.787Z,32.70
2019-02-05T21:41:41.708Z,30.10
2019-02-05T21:44:11.081Z,34.50
2019-02-05T21:46:39.540Z,35.93
2019-02-05T21:49:08.776Z,33.50
2019-02-05T21:51:40.858Z,34.50
2019-02-05T21:54:07.325Z,34.50
2019-02-05T21:56:35.716Z,31.73
2019-02-05T21:59:05.590Z,37.00
2019-02-05T22:01:35.148Z,37.07
2019-02-05T22:04:05.725Z,41.53
2019-02-05T22:06:34.178Z,37.10
2019-02-05T22:09:05.093Z,36.73
2019-02-05T22:11:34.268Z,37.67
2019-02-05T22:14:02.756Z,32.70
2019-02-05T22:16:31.174Z,29.90
2019-02-05T22:18:59.811Z,31.93
2019-02-05T22:21:28.440Z,33.27
2019-02-05T22:23:58.077Z,32.20
2019-02-05T22:26:27.440Z,35.10
2019-02-05T22:28:56.781Z,28.83
2019-02-05T22:31:25.176Z,32.83
2019-02-05T22:33:53.809Z,30.57
2019-02-05T22:36:22.210Z,26.93
2019-02-05T22:38:53.566Z,28.70
2019-02-05T22:41:22.407Z,27.37
2019-02-05T22:43:50.809Z,28.60
2019-02-05T22:46:20.877Z,28.00
2019-02-05T22:48:49.268Z,28.67
2019-02-05T22:51:21.089Z,29.03
2019-02-05T22:53:53.685Z,35.37
2019-02-05T22:56:19.618Z,34.87
2019-02-05T22:58:48.921Z,34.47
2019-02-05T23:01:23.273Z,39.30
2019-02-05T23:03:54.753Z,34.33
2019-02-05T23:06:33.603Z,31.43
2019-02-05T23:09:17.763Z,33.00
2019-02-05T23:12:04.077Z,35.63
2019-02-05T23:14:32.478Z,33.67
2019-02-05T23:17:02.798Z,31.03
2019-02-05T23:19:31.196Z,34.37
2019-02-05T23:22:01.234Z,31.90
2019-02-05T23:24:29.633Z,35.37
2019-02-05T23:26:58.685Z,31.37
2019-02-05T23:29:28.684Z,29.73
2019-02-05T23:31:57.847Z,30.00
2019-02-05T23:34:26.234Z,28.87
2019-02-05T23:36:54.637Z,29.43
2019-02-05T23:39:23.031Z,31.50
2019-02-05T23:41:51.445Z,29.80
2019-02-05T23:44:19.845Z,22.93
2019-02-05T23:46:49.442Z,28.57
2019-02-05T23:49:18.435Z,27.00
2019-02-05T23:51:49.969Z,27.17
2019-02-05T23:54:18.618Z,29.60
2019-02-05T23:56:47.020Z,31.60
2019-02-05T23:59:16.948Z,31.80
